createdAt,value
2023-01-27T00:01:33.908Z,99703.16
2023-01-27T00:04:03.434Z,99697.53
2023-01-27T00:06:36.136Z,99703.34
2023-01-27T00:09:04.100Z,99701.63
2023-01-27T00:11:49.694Z,99703.16
2023-01-27T00:14:17.591Z,99699.78
2023-01-27T00:16:45.452Z,99706.91
2023-01-27T00:19:14.733Z,99705.22
2023-01-27T00:22:00.479Z,99703.59
2023-01-27T00:24:37.470Z,99703.41
2023-01-27T00:27:08.969Z,99705.22
2023-01-27T00:29:40.536Z,99712.88
2023-01-27T00:32:25.828Z,99707.25
2023-01-27T00:34:55.320Z,99708.28
2023-01-27T00:37:24.505Z,99703.50
2023-01-27T00:39:52.363Z,99700.88
2023-01-27T00:42:20.230Z,99706.56
2023-01-27T00:45:02.136Z,99704.00
2023-01-27T00:47:30.029Z,99698.06
2023-01-27T00:49:59.174Z,99702.81
2023-01-27T00:52:27.220Z,99709.28
2023-01-27T00:54:55.008Z,99697.03
2023-01-27T00:57:22.841Z,99707.94
2023-01-27T00:59:51.090Z,99698.81
2023-01-27T01:02:19.368Z,99699.50
2023-01-27T01:04:47.285Z,99696.75
2023-01-27T01:07:16.582Z,99701.53
2023-01-27T01:09:45.205Z,99695.53
2023-01-27T01:12:13.154Z,99692.22
2023-01-27T01:14:40.968Z,99689.66
2023-01-27T01:17:08.922Z,99688.84
2023-01-27T01:19:37.044Z,99681.44
2023-01-27T01:22:05.114Z,99678.97
2023-01-27T01:24:34.371Z,99683.97
2023-01-27T01:27:02.194Z,99685.56
2023-01-27T01:29:30.110Z,99678.09
2023-01-27T01:31:59.132Z,99673.94
2023-01-27T01:34:27.067Z,99672.13
2023-01-27T01:36:54.986Z,99665.50
2023-01-27T01:39:22.793Z,99658.66
2023-01-27T01:41:52.939Z,99667.53
2023-01-27T01:44:22.768Z,99661.16
2023-01-27T01:46:50.716Z,99669.88
2023-01-27T01:49:22.069Z,99658.53
2023-01-27T01:51:54.850Z,99666.72
2023-01-27T01:54:27.414Z,99656.84
2023-01-27T01:57:06.739Z,99653.59
2023-01-27T01:59:37.617Z,99650.00
2023-01-27T02:02:09.493Z,99650.59
2023-01-27T02:04:42.150Z,99648.81
2023-01-27T02:07:14.362Z,99652.88
2023-01-27T02:09:42.248Z,99652.88
2023-01-27T02:12:11.593Z,99656.97
2023-01-27T02:14:40.519Z,99659.34
2023-01-27T02:17:10.446Z,99649.31
2023-01-27T02:19:52.057Z,99647.69
2023-01-27T02:22:28.559Z,99635.84
2023-01-27T02:25:04.932Z,99646.25
2023-01-27T02:27:34.582Z,99617.63
2023-01-27T02:30:02.465Z,99632.81
2023-01-27T02:32:30.358Z,99637.75
2023-01-27T02:34:58.642Z,99639.28
2023-01-27T02:37:26.960Z,99634.56
2023-01-27T02:39:56.497Z,99630.47
2023-01-27T02:42:24.315Z,99633.72
2023-01-27T02:44:53.475Z,99632.94
2023-01-27T02:47:21.923Z,99632.38
2023-01-27T02:49:50.185Z,99631.59
2023-01-27T02:52:18.472Z,99625.91
2023-01-27T02:54:47.276Z,99622.66
2023-01-27T02:57:15.446Z,99622.75
2023-01-27T02:59:57.220Z,99630.06
2023-01-27T03:02:30.490Z,99618.13
2023-01-27T03:04:58.765Z,99614.41
2023-01-27T03:07:26.969Z,99624.88
2023-01-27T03:09:56.452Z,99629.81
2023-01-27T03:12:24.808Z,99636.53
2023-01-27T03:15:11.584Z,99632.38
2023-01-27T03:17:58.936Z,99638.25
2023-01-27T03:20:26.776Z,99637.38
2023-01-27T03:22:54.743Z,99629.13
2023-01-27T03:25:24.873Z,99628.53
2023-01-27T03:27:57.288Z,99636.72
2023-01-27T03:30:34.409Z,99630.06
2023-01-27T03:33:32.780Z,99619.69
2023-01-27T03:36:41.184Z,99625.91
2023-01-27T03:39:26.686Z,99618.47
2023-01-27T03:42:12.135Z,99619.84
2023-01-27T03:44:58.274Z,99626.47
2023-01-27T03:47:27.136Z,99608.25
2023-01-27T03:49:56.276Z,99613.97
2023-01-27T03:52:24.493Z,99610.03
2023-01-27T03:54:52.282Z,99604.53
2023-01-27T03:57:20.139Z,99598.56
2023-01-27T03:59:48.057Z,99597.03
2023-01-27T04:02:33.935Z,99591.22
2023-01-27T04:05:20.559Z,99586.28
2023-01-27T04:07:48.438Z,99592.94
2023-01-27T04:10:17.030Z,99591.22
2023-01-27T04:12:44.882Z,99588.75
2023-01-27T04:15:13.109Z,99584.75
2023-01-27T04:17:42.681Z,99573.19
2023-01-27T04:20:13.319Z,99589.63
2023-01-27T04:22:41.332Z,99593.44
2023-01-27T04:25:11.609Z,99590.09
2023-01-27T04:27:40.131Z,99588.75
2023-01-27T04:30:09.527Z,99587.16
2023-01-27T04:32:37.366Z,99586.97
2023-01-27T04:35:05.897Z,99585.34
2023-01-27T04:37:35.035Z,99582.88
2023-01-27T04:40:02.823Z,99594.38
2023-01-27T04:42:30.676Z,99582.63
2023-01-27T04:44:58.570Z,99580.81
2023-01-27T04:47:26.501Z,99596.16
2023-01-27T04:49:54.427Z,99590.47
2023-01-27T04:52:22.316Z,99603.00
2023-01-27T04:54:51.584Z,99593.19
2023-01-27T04:57:20.208Z,99584.94
2023-01-27T04:59:47.992Z,99586.97
2023-01-27T05:02:16.037Z,99584.59
2023-01-27T05:04:43.984Z,99582.19
2023-01-27T05:07:11.809Z,99584.09
2023-01-27T05:09:39.587Z,99589.78
2023-01-27T05:12:09.024Z,99584.59
2023-01-27T05:14:36.918Z,99596.84
2023-01-27T05:17:04.803Z,99589.69
2023-01-27T05:19:32.861Z,99596.44
2023-01-27T05:22:00.813Z,99574.72
2023-01-27T05:24:28.752Z,99587.50
2023-01-27T05:26:57.618Z,99586.47
2023-01-27T05:29:27.007Z,99590.38
2023-01-27T05:31:54.923Z,99592.09
2023-01-27T05:34:22.952Z,99590.38
2023-01-27T05:36:51.562Z,99589.69
2023-01-27T05:39:19.720Z,99579.13
2023-01-27T05:41:47.691Z,99566.28
2023-01-27T05:44:15.743Z,99582.38
2023-01-27T05:46:44.962Z,99579.91
2023-01-27T05:49:12.988Z,99582.56
2023-01-27T05:51:41.035Z,99570.97
2023-01-27T05:54:09.803Z,99577.78
2023-01-27T05:56:37.842Z,99581.78
2023-01-27T05:59:05.835Z,99576.09
2023-01-27T06:01:35.624Z,99570.97
2023-01-27T06:04:05.953Z,99571.81
2023-01-27T06:06:34.608Z,99561.94
2023-01-27T06:09:02.936Z,99565.34
2023-01-27T06:11:30.886Z,99570.28
2023-01-27T06:13:58.963Z,99570.97
2023-01-27T06:16:26.973Z,99567.56
2023-01-27T06:18:54.867Z,99571.81
2023-01-27T06:21:24.156Z,99574.19
2023-01-27T06:23:53.413Z,99577.44
2023-01-27T06:26:21.381Z,99583.16
2023-01-27T06:28:49.396Z,99590.56
2023-01-27T06:31:19.298Z,99581.63
2023-01-27T06:33:47.367Z,99592.44
2023-01-27T06:36:16.711Z,99590.72
2023-01-27T06:38:46.479Z,99587.22
2023-01-27T06:41:14.599Z,99592.44
2023-01-27T06:43:42.565Z,99591.66
2023-01-27T06:46:10.512Z,99584.25
2023-01-27T06:48:38.892Z,99581.97
2023-01-27T06:51:07.629Z,99579.50
2023-01-27T06:53:37.334Z,99584.56
2023-01-27T06:56:07.773Z,99596.06
2023-01-27T06:58:35.720Z,99599.41
2023-01-27T07:01:05.512Z,99588.34
2023-01-27T07:06:01.102Z,99596.75
2023-01-27T07:08:29.023Z,99599.88
2023-01-27T07:10:56.870Z,99603.69
2023-01-27T07:13:26.112Z,99591.69
2023-01-27T07:15:57.226Z,99593.97
2023-01-27T07:18:25.211Z,99576.00
2023-01-27T07:20:53.109Z,99594.28
2023-01-27T07:23:21.012Z,99591.81
2023-01-27T07:25:49.083Z,99596.75
2023-01-27T07:28:17.180Z,99604.75
2023-01-27T07:30:46.488Z,99603.25
2023-01-27T07:33:15.722Z,99604.94
2023-01-27T07:35:43.725Z,99595.75
2023-01-27T07:38:12.045Z,99612.34
2023-01-27T07:40:39.965Z,99614.72
2023-01-27T07:43:08.276Z,99602.22
2023-01-27T07:45:36.467Z,99608.19
2023-01-27T07:48:07.711Z,99605.25
2023-01-27T07:50:36.607Z,99618.03
2023-01-27T07:53:06.050Z,99618.09
2023-01-27T07:55:34.301Z,99622.47
2023-01-27T07:58:02.577Z,99616.75
2023-01-27T08:00:30.824Z,99610.22
2023-01-27T08:03:01.856Z,99620.09
2023-01-27T08:05:33.706Z,99616.84
2023-01-27T08:08:03.954Z,99617.63
2023-01-27T08:10:31.883Z,99620.09
2023-01-27T08:12:59.882Z,99618.38
2023-01-27T08:15:27.856Z,99625.97
2023-01-27T08:17:57.029Z,99619.50
2023-01-27T08:20:26.173Z,99626.81
2023-01-27T08:22:55.546Z,99620.09
2023-01-27T08:25:23.514Z,99615.81
2023-01-27T08:27:52.546Z,99616.84
2023-01-27T08:30:21.306Z,99620.47
2023-01-27T08:32:49.291Z,99615.53
2023-01-27T08:35:17.592Z,99622.16
2023-01-27T08:37:48.390Z,99603.75
2023-01-27T08:40:19.838Z,99619.03
2023-01-27T08:42:47.688Z,99615.69
2023-01-27T08:45:15.513Z,99604.69
2023-01-27T08:47:43.486Z,99614.94
2023-01-27T08:50:12.975Z,99613.81
2023-01-27T08:52:41.258Z,99614.50
2023-01-27T08:55:09.360Z,99616.75
2023-01-27T08:57:38.657Z,99622.88
2023-01-27T09:00:07.723Z,99611.94
2023-01-27T09:02:36.115Z,99617.63
2023-01-27T09:05:04.210Z,99620.50
2023-01-27T09:07:33.232Z,99621.88
2023-01-27T09:10:13.612Z,99610.13
2023-01-27T09:12:44.773Z,99613.16
2023-01-27T09:15:13.854Z,99622.47
2023-01-27T09:17:42.116Z,99624.41
2023-01-27T09:20:12.019Z,99615.75
2023-01-27T09:22:41.217Z,99614.56
2023-01-27T09:25:10.375Z,99617.53
2023-01-27T09:27:39.932Z,99619.75
2023-01-27T09:30:14.585Z,99628.94
2023-01-27T09:32:43.893Z,99630.06
2023-01-27T09:35:12.226Z,99626.06
2023-01-27T09:37:45.115Z,99629.56
2023-01-27T09:40:23.635Z,99623.00
2023-01-27T09:43:15.135Z,99628.19
2023-01-27T09:46:01.762Z,99626.91
2023-01-27T09:48:44.907Z,99632.47
2023-01-27T09:51:24.342Z,99612.16
2023-01-27T09:54:30.830Z,99624.66
2023-01-27T09:57:09.567Z,99629.44
2023-01-27T09:59:49.655Z,99623.75
2023-01-27T10:02:35.269Z,99623.75
2023-01-27T10:05:31.037Z,99609.06
2023-01-27T10:08:17.287Z,99628.75
2023-01-27T10:10:58.406Z,99631.91
2023-01-27T10:13:35.733Z,99627.34
2023-01-27T10:16:15.152Z,99620.88
2023-01-27T10:19:14.747Z,99615.38
2023-01-27T10:21:53.612Z,99608.91
2023-01-27T10:24:33.632Z,99610.00
2023-01-27T10:27:08.825Z,99605.56
2023-01-27T10:29:45.469Z,99610.44
2023-01-27T10:32:24.607Z,99599.88
2023-01-27T10:35:05.077Z,99605.91
2023-01-27T10:37:43.632Z,99608.22
2023-01-27T10:40:19.546Z,99605.75
2023-01-27T10:42:58.150Z,99603.09
2023-01-27T10:45:32.132Z,99581.84
2023-01-27T10:48:20.829Z,99601.50
2023-01-27T10:50:53.886Z,99597.47
2023-01-27T10:53:30.007Z,99597.66
2023-01-27T10:56:05.177Z,99594.78
2023-01-27T10:58:43.816Z,99594.25
2023-01-27T11:01:21.317Z,99589.97
2023-01-27T11:03:55.639Z,99582.47
2023-01-27T11:06:28.944Z,99589.56
2023-01-27T11:09:08.720Z,99583.25
2023-01-27T11:11:46.480Z,99577.53
2023-01-27T11:14:28.745Z,99578.22
2023-01-27T11:17:03.810Z,99568.50
2023-01-27T11:19:45.359Z,99574.69
2023-01-27T11:22:22.920Z,99580.56
2023-01-27T11:24:58.667Z,99571.34
2023-01-27T11:27:38.746Z,99571.34
2023-01-27T11:30:16.847Z,99577.91
2023-01-27T11:32:55.413Z,99577.75
2023-01-27T11:35:23.791Z,99569.56
2023-01-27T11:38:00.600Z,99569.56
2023-01-27T11:40:34.348Z,99565.22
2023-01-27T11:43:03.383Z,99574.69
2023-01-27T11:45:36.201Z,99568.19
2023-01-27T11:48:08.799Z,99563.41
2023-01-27T11:50:37.607Z,99556.59
2023-01-27T11:53:15.580Z,99561.94
2023-01-27T11:55:46.864Z,99552.97
2023-01-27T11:58:20.606Z,99556.22
2023-01-27T12:00:53.948Z,99564.81
2023-01-27T12:03:25.684Z,99564.06
2023-01-27T12:05:56.719Z,99558.19
2023-01-27T12:08:41.112Z,99550.91
2023-01-27T12:11:27.366Z,99554.59
2023-01-27T12:13:57.640Z,99552.47
2023-01-27T12:16:34.354Z,99554.69
2023-01-27T12:19:05.471Z,99555.03
2023-01-27T12:21:41.497Z,99551.03
2023-01-27T12:24:23.193Z,99551.09
2023-01-27T12:26:53.371Z,99546.00
2023-01-27T12:29:26.823Z,99547.53
2023-01-27T12:31:56.827Z,99536.09
2023-01-27T12:34:29.375Z,99533.78
2023-01-27T12:36:58.904Z,99538.81
2023-01-27T12:39:46.731Z,99542.91
2023-01-27T12:42:38.063Z,99532.69
2023-01-27T12:45:21.851Z,99537.13
2023-01-27T12:48:00.899Z,99536.25
2023-01-27T12:50:35.383Z,99535.25
2023-01-27T12:53:12.748Z,99531.31
2023-01-27T12:55:44.960Z,99538.66
2023-01-27T12:58:31.392Z,99525.03
2023-01-27T13:01:01.647Z,99529.13
2023-01-27T13:03:30.569Z,99520.94
2023-01-27T13:06:00.515Z,99518.53
2023-01-27T13:08:33.543Z,99521.78
2023-01-27T13:11:04.900Z,99520.25
2023-01-27T13:13:32.929Z,99524.19
2023-01-27T13:16:07.595Z,99529.28
2023-01-27T13:18:39.611Z,99531.75
2023-01-27T13:21:16.093Z,99523.50
2023-01-27T13:23:44.493Z,99534.66
2023-01-27T13:26:18.596Z,99534.75
2023-01-27T13:28:53.499Z,99535.59
2023-01-27T13:31:30.876Z,99533.91
2023-01-27T13:34:04.957Z,99537.94
2023-01-27T13:36:39.280Z,99540.31
2023-01-27T13:39:17.338Z,99537.00
2023-01-27T13:41:53.323Z,99539.59
2023-01-27T13:44:29.468Z,99542.72
2023-01-27T13:47:03.051Z,99543.31
2023-01-27T13:49:37.037Z,99546.56
2023-01-27T13:52:06.719Z,99543.81
2023-01-27T13:54:34.833Z,99539.56
2023-01-27T13:57:27.110Z,99546.03
2023-01-27T14:00:08.555Z,99550.97
2023-01-27T14:03:11.482Z,99544.50
2023-01-27T14:05:44.970Z,99536.03
2023-01-27T14:08:26.719Z,99557.81
2023-01-27T14:11:09.278Z,99561.22
2023-01-27T14:13:54.980Z,99565.97
2023-01-27T14:16:29.180Z,99574.69
2023-01-27T14:19:06.741Z,99570.28
2023-01-27T14:21:43.972Z,99569.25
2023-01-27T14:24:27.342Z,99567.53
2023-01-27T14:27:05.122Z,99568.41
2023-01-27T14:29:44.249Z,99564.22
2023-01-27T14:32:20.305Z,99563.19
2023-01-27T14:35:00.178Z,99566.38
2023-01-27T14:37:35.188Z,99558.53
2023-01-27T14:40:18.367Z,99563.09
2023-01-27T14:42:59.357Z,99571.47
2023-01-27T14:45:33.907Z,99562.44
2023-01-27T14:48:11.082Z,99559.88
2023-01-27T14:50:43.124Z,99553.94
2023-01-27T14:53:28.302Z,99559.56
2023-01-27T14:56:02.603Z,99557.84
2023-01-27T14:58:45.502Z,99552.81
2023-01-27T15:01:27.775Z,99562.78
2023-01-27T15:04:26.619Z,99556.91
2023-01-27T15:06:59.323Z,99548.47
2023-01-27T15:09:42.975Z,99555.03
2023-01-27T15:12:29.671Z,99561.59
2023-01-27T15:15:19.345Z,99555.63
2023-01-27T15:18:03.244Z,99558.84
2023-01-27T15:20:50.063Z,99558.00
2023-01-27T15:23:38.328Z,99558.72
2023-01-27T15:26:08.732Z,99571.13
2023-01-27T15:28:39.628Z,99577.75
2023-01-27T15:31:23.827Z,99582.66
2023-01-27T15:33:56.153Z,99583.25
2023-01-27T15:36:36.347Z,99592.94
2023-01-27T15:39:25.960Z,99590.38
2023-01-27T15:42:13.182Z,99589.34
2023-01-27T15:44:43.279Z,99585.16
2023-01-27T15:47:13.729Z,99594.78
2023-01-27T15:49:46.754Z,99582.13
2023-01-27T15:52:29.605Z,99583.53
2023-01-27T15:55:01.334Z,99590.69
2023-01-27T15:57:33.567Z,99583.09
2023-01-27T16:00:06.353Z,99587.03
2023-01-27T16:02:45.183Z,99590.16
2023-01-27T16:05:22.872Z,99594.75
2023-01-27T16:07:54.495Z,99600.53
2023-01-27T16:10:24.620Z,99596.59
2023-01-27T16:13:26.949Z,99609.19
2023-01-27T16:16:23.559Z,99609.88
2023-01-27T16:18:57.788Z,99609.50
2023-01-27T16:21:49.510Z,99614.34
2023-01-27T16:24:25.601Z,99602.50
2023-01-27T16:27:00.806Z,99622.41
2023-01-27T16:29:35.349Z,99628.13
2023-01-27T16:32:07.621Z,99626.50
2023-01-27T16:34:40.955Z,99623.75
2023-01-27T16:37:26.884Z,99625.28
2023-01-27T16:40:02.988Z,99624.94
2023-01-27T16:42:35.116Z,99632.16
2023-01-27T16:45:10.241Z,99633.66
2023-01-27T16:47:44.419Z,99635.94
2023-01-27T16:50:32.251Z,99639.16
2023-01-27T16:53:03.231Z,99631.50
2023-01-27T16:55:31.345Z,99643.75
2023-01-27T16:58:01.589Z,99651.25
2023-01-27T17:00:33.317Z,99646.31
2023-01-27T17:03:05.641Z,99649.44
2023-01-27T17:05:33.746Z,99658.34
2023-01-27T17:08:17.893Z,99659.09
2023-01-27T17:10:50.800Z,99655.13
2023-01-27T17:13:30.244Z,99663.09
2023-01-27T17:16:00.085Z,99650.94
2023-01-27T17:18:31.639Z,99661.84
2023-01-27T17:21:03.456Z,99658.72
2023-01-27T17:23:35.822Z,99658.53
2023-01-27T17:26:07.738Z,99655.13
2023-01-27T17:28:36.503Z,99657.78
2023-01-27T17:31:08.006Z,99666.78
2023-01-27T17:33:38.417Z,99650.13
2023-01-27T17:36:11.203Z,99641.59
2023-01-27T17:38:47.631Z,99660.81
2023-01-27T17:41:33.647Z,99663.28
2023-01-27T17:44:02.259Z,99664.81
2023-01-27T17:46:33.077Z,99667.44
2023-01-27T17:49:04.614Z,99653.63
2023-01-27T17:51:38.320Z,99674.94
2023-01-27T17:54:20.384Z,99666.44
2023-01-27T17:56:51.287Z,99683.94
2023-01-27T17:59:22.089Z,99682.22
2023-01-27T18:01:53.119Z,99687.16
2023-01-27T18:04:22.041Z,99683.09
2023-01-27T18:06:51.492Z,99684.91
2023-01-27T18:09:26.345Z,99703.88
2023-01-27T18:11:57.173Z,99697.41
2023-01-27T18:14:26.112Z,99687.56
2023-01-27T18:17:02.070Z,99696.47
2023-01-27T18:19:30.281Z,99688.78
2023-01-27T18:22:19.211Z,99696.28
2023-01-27T18:24:54.022Z,99705.00
2023-01-27T18:27:27.655Z,99703.50
2023-01-27T18:30:02.714Z,99713.06
2023-01-27T18:32:38.903Z,99709.84
2023-01-27T18:35:24.863Z,99718.38
2023-01-27T18:37:56.051Z,99713.34
2023-01-27T18:40:31.455Z,99718.94
2023-01-27T18:43:00.364Z,99721.50
2023-01-27T18:45:28.809Z,99723.97
2023-01-27T18:47:57.592Z,99725.69
2023-01-27T18:50:27.410Z,99723.13
2023-01-27T18:52:55.316Z,99730.81
2023-01-27T18:55:24.865Z,99727.59
2023-01-27T18:57:56.456Z,99725.03
2023-01-27T19:00:26.713Z,99726.34
2023-01-27T19:02:58.965Z,99721.50
2023-01-27T19:05:29.578Z,99724.16
2023-01-27T19:07:57.587Z,99722.66
2023-01-27T19:10:28.388Z,99725.88
2023-01-27T19:12:59.200Z,99726.72
2023-01-27T19:15:29.241Z,99732.31
2023-01-27T19:17:59.586Z,99728.91
2023-01-27T19:20:29.016Z,99733.38
2023-01-27T19:22:58.518Z,99730.22
2023-01-27T19:25:30.490Z,99725.22
2023-01-27T19:28:03.992Z,99730.97
2023-01-27T19:30:35.861Z,99730.16
2023-01-27T19:33:04.700Z,99723.31
2023-01-27T19:35:32.750Z,99728.25
2023-01-27T19:38:03.579Z,99725.69
2023-01-27T19:40:32.557Z,99724.84
2023-01-27T19:43:02.041Z,99722.38
2023-01-27T19:45:29.956Z,99725.69
2023-01-27T19:47:59.736Z,99726.72
2023-01-27T19:50:29.914Z,99723.41
2023-01-27T19:52:58.018Z,99728.91
2023-01-27T19:55:26.445Z,99723.22
2023-01-27T19:57:54.229Z,99730.72
2023-01-27T20:00:27.828Z,99723.97
2023-01-27T20:02:56.261Z,99718.28
2023-01-27T20:05:26.076Z,99731.56
2023-01-27T20:07:55.483Z,99725.78
2023-01-27T20:10:25.968Z,99716.19
2023-01-27T20:12:56.084Z,99730.81
2023-01-27T20:15:27.103Z,99734.03
2023-01-27T20:17:56.068Z,99723.97
2023-01-27T20:20:25.498Z,99722.47
2023-01-27T20:22:54.087Z,99737.44
2023-01-27T20:25:23.639Z,99734.22
2023-01-27T20:27:53.167Z,99741.69
2023-01-27T20:30:23.148Z,99729.09
2023-01-27T20:32:54.421Z,99737.44
2023-01-27T20:35:23.765Z,99743.31
2023-01-27T20:37:53.643Z,99720.25
2023-01-27T20:40:23.572Z,99738.38
2023-01-27T20:42:52.448Z,99736.69
2023-01-27T20:45:21.056Z,99735.75
2023-01-27T20:47:50.422Z,99737.44
2023-01-27T20:50:20.455Z,99727.19
2023-01-27T20:52:49.257Z,99739.16
2023-01-27T20:55:19.276Z,99738.31
2023-01-27T20:57:47.252Z,99732.69
2023-01-27T21:00:18.519Z,99739.31
2023-01-27T21:02:47.484Z,99733.53
2023-01-27T21:05:16.285Z,99737.63
2023-01-27T21:07:45.778Z,99730.91
2023-01-27T21:10:13.767Z,99735.09
2023-01-27T21:12:41.633Z,99720.84
2023-01-27T21:15:11.083Z,99737.44
2023-01-27T21:17:39.035Z,99737.44
2023-01-27T21:20:08.903Z,99740.84
2023-01-27T21:22:36.799Z,99735.91
2023-01-27T21:25:06.742Z,99735.09
2023-01-27T21:27:34.679Z,99740.84
2023-01-27T21:30:02.574Z,99730.31
2023-01-27T21:32:30.456Z,99739.16
2023-01-27T21:34:59.825Z,99748.34
2023-01-27T21:37:27.748Z,99760.56
2023-01-27T21:39:56.638Z,99749.69
2023-01-27T21:42:51.772Z,99734.19
2023-01-27T21:45:20.706Z,99745.78
2023-01-27T21:47:48.633Z,99748.34
2023-01-27T21:50:17.427Z,99744.09
2023-01-27T21:52:47.231Z,99742.53
2023-01-27T21:55:17.639Z,99740.84
2023-01-27T21:57:48.532Z,99739.22
2023-01-27T22:00:18.561Z,99735.91
2023-01-27T22:02:46.596Z,99739.22
2023-01-27T22:05:14.788Z,99738.47
2023-01-27T22:07:48.369Z,99740.84
2023-01-27T22:10:18.342Z,99728.16
2023-01-27T22:12:49.815Z,99729.38
2023-01-27T22:15:19.624Z,99734.22
2023-01-27T22:17:47.807Z,99729.28
2023-01-27T22:20:16.454Z,99729.09
2023-01-27T22:22:44.758Z,99734.03
2023-01-27T22:25:15.171Z,99738.78
2023-01-27T22:27:43.452Z,99733.84
2023-01-27T22:30:15.237Z,99738.78
2023-01-27T22:32:43.822Z,99740.47
2023-01-27T22:35:14.748Z,99737.63
2023-01-27T22:37:43.186Z,99738.78
2023-01-27T22:40:13.021Z,99741.44
2023-01-27T22:42:40.907Z,99743.03
2023-01-27T22:45:10.505Z,99737.06
2023-01-27T22:47:39.848Z,99748.81
2023-01-27T22:50:08.716Z,99739.91
2023-01-27T22:52:37.584Z,99708.50
2023-01-27T22:55:06.409Z,99740.09
2023-01-27T22:57:34.433Z,99748.16
2023-01-27T23:00:02.846Z,99741.44
2023-01-27T23:02:31.254Z,99742.38
2023-01-27T23:05:00.508Z,99740.69
2023-01-27T23:07:28.353Z,99743.91
2023-01-27T23:09:56.289Z,99738.00
2023-01-27T23:12:24.115Z,99743.69
2023-01-27T23:14:51.949Z,99733.44
2023-01-27T23:17:19.836Z,99751.41
2023-01-27T23:19:47.680Z,99742.19
2023-01-27T23:22:16.896Z,99739.53
2023-01-27T23:24:44.805Z,99736.22
2023-01-27T23:27:12.645Z,99732.13
2023-01-27T23:29:40.480Z,99740.38
2023-01-27T23:32:08.424Z,99730.22
2023-01-27T23:34:36.250Z,99727.00
2023-01-27T23:37:04.109Z,99739.22
2023-01-27T23:39:33.317Z,99738.19
2023-01-27T23:42:01.165Z,99731.47
2023-01-27T23:44:29.169Z,99732.03
2023-01-27T23:46:57.059Z,99731.84
2023-01-27T23:49:24.857Z,99736.38
2023-01-27T23:51:52.692Z,99729.53
2023-01-27T23:54:20.570Z,99731.81
2023-01-27T23:56:49.841Z,99739.38
2023-01-27T23:59:17.667Z,99727.91
